createdAt,value
2018-10-06T00:01:26.905Z,6.43
2018-10-06T00:03:55.382Z,6.50
2018-10-06T00:06:23.882Z,5.83
2018-10-06T00:08:52.371Z,5.93
2018-10-06T00:11:20.891Z,5.90
2018-10-06T00:13:49.360Z,5.93
2018-10-06T00:16:17.837Z,6.10
2018-10-06T00:18:46.331Z,5.70
2018-10-06T00:21:14.858Z,5.57
2018-10-06T00:23:43.338Z,5.67
2018-10-06T00:26:11.890Z,6.03
2018-10-06T00:28:40.358Z,6.60
2018-10-06T00:31:08.855Z,6.73
2018-10-06T00:33:37.347Z,5.80
2018-10-06T00:36:05.818Z,6.10
2018-10-06T00:38:34.481Z,6.40
2018-10-06T00:41:02.970Z,6.00
2018-10-06T00:43:31.435Z,7.23
2018-10-06T00:45:59.986Z,6.90
2018-10-06T00:48:28.439Z,6.23
2018-10-06T00:50:56.902Z,6.30
2018-10-06T00:53:25.371Z,6.83
2018-10-06T00:55:53.823Z,5.90
2018-10-06T00:58:22.314Z,5.93
2018-10-06T01:00:50.823Z,6.13
2018-10-06T01:03:19.338Z,6.70
2018-10-06T01:05:47.828Z,5.87
2018-10-06T01:08:16.308Z,6.57
2018-10-06T01:10:44.778Z,6.57
2018-10-06T01:13:13.259Z,6.23
2018-10-06T01:15:41.722Z,6.63
2018-10-06T01:18:10.251Z,7.23
2018-10-06T01:20:38.754Z,7.27
2018-10-06T01:23:07.391Z,7.30
2018-10-06T01:25:35.838Z,7.13
2018-10-06T01:28:04.331Z,6.27
2018-10-06T01:30:32.830Z,5.80
2018-10-06T01:33:01.311Z,6.70
2018-10-06T01:35:29.766Z,5.37
2018-10-06T01:37:58.259Z,6.47
2018-10-06T01:40:26.779Z,7.00
2018-10-06T01:42:55.279Z,7.47
2018-10-06T01:45:23.766Z,6.40
2018-10-06T01:47:52.250Z,6.67
2018-10-06T01:50:20.776Z,6.40
2018-10-06T01:52:49.262Z,6.27
2018-10-06T01:55:17.774Z,6.53
2018-10-06T01:57:46.260Z,5.90
2018-10-06T02:00:14.726Z,6.13
2018-10-06T02:02:43.200Z,6.93
2018-10-06T02:05:11.659Z,6.73
2018-10-06T02:07:40.158Z,7.57
2018-10-06T02:10:08.658Z,6.37
2018-10-06T02:12:37.222Z,7.43
2018-10-06T02:15:05.827Z,7.27
2018-10-06T02:17:34.351Z,7.13
2018-10-06T02:20:02.859Z,6.43
2018-10-06T02:22:31.355Z,6.63
2018-10-06T02:24:59.834Z,7.23
2018-10-06T02:27:28.334Z,6.93
2018-10-06T02:29:56.824Z,6.23
2018-10-06T02:32:25.274Z,6.43
2018-10-06T02:34:53.723Z,6.77
2018-10-06T02:37:22.158Z,6.63
2018-10-06T02:39:50.643Z,6.27
2018-10-06T02:42:19.064Z,6.60
2018-10-06T02:44:47.546Z,6.63
2018-10-06T02:47:15.979Z,7.27
2018-10-06T02:49:44.433Z,6.30
2018-10-06T02:52:12.871Z,6.90
2018-10-06T02:54:41.347Z,7.03
2018-10-06T02:57:09.769Z,7.07
2018-10-06T02:59:38.251Z,6.97
2018-10-06T03:02:06.710Z,7.00
2018-10-06T03:04:35.178Z,6.80
2018-10-06T03:07:03.692Z,6.90
2018-10-06T03:09:32.167Z,6.40
2018-10-06T03:12:00.618Z,5.87
2018-10-06T03:14:29.070Z,6.57
2018-10-06T03:16:57.506Z,6.27
2018-10-06T03:19:26.020Z,6.60
2018-10-06T03:21:54.482Z,6.90
2018-10-06T03:24:22.917Z,6.10
2018-10-06T03:26:51.470Z,6.33
2018-10-06T03:29:19.921Z,6.90
2018-10-06T03:31:48.365Z,6.47
2018-10-06T03:34:16.868Z,6.47
2018-10-06T03:36:45.313Z,6.47
2018-10-06T03:39:13.750Z,6.83
2018-10-06T03:41:42.419Z,7.20
2018-10-06T03:44:11.062Z,7.70
2018-10-06T03:46:39.589Z,6.77
2018-10-06T03:49:08.911Z,6.53
2018-10-06T03:51:37.794Z,7.07
2018-10-06T03:54:06.351Z,7.17
2018-10-06T03:56:34.771Z,6.13
2018-10-06T03:59:03.300Z,5.80
2018-10-06T04:01:31.750Z,6.27
2018-10-06T04:04:00.246Z,7.30
2018-10-06T04:06:28.686Z,7.50
2018-10-06T04:08:57.443Z,6.63
2018-10-06T04:11:25.932Z,6.53
2018-10-06T04:13:54.355Z,6.83
2018-10-06T04:16:22.768Z,6.50
2018-10-06T04:18:51.197Z,6.97
2018-10-06T04:21:19.695Z,6.70
2018-10-06T04:23:48.154Z,6.70
2018-10-06T04:26:16.714Z,7.43
2018-10-06T04:28:45.207Z,7.20
2018-10-06T04:31:13.678Z,6.60
2018-10-06T04:33:42.113Z,7.13
2018-10-06T04:36:11.342Z,7.93
2018-10-06T04:38:39.742Z,6.97
2018-10-06T04:41:08.279Z,7.27
2018-10-06T04:43:36.714Z,7.53
2018-10-06T04:46:05.207Z,7.50
2018-10-06T04:48:33.685Z,7.37
2018-10-06T04:51:02.192Z,8.77
2018-10-06T04:53:30.662Z,8.67
2018-10-06T04:55:59.205Z,7.77
2018-10-06T04:58:27.633Z,7.93
2018-10-06T05:00:56.258Z,7.73
2018-10-06T05:03:24.745Z,8.13
2018-10-06T05:05:53.187Z,7.40
2018-10-06T05:08:22.334Z,7.27
2018-10-06T05:10:50.818Z,7.77
2018-10-06T05:13:19.246Z,7.77
2018-10-06T05:15:47.675Z,8.07
2018-10-06T05:18:16.118Z,7.80
2018-10-06T05:20:44.606Z,7.40
2018-10-06T05:23:13.079Z,8.43
2018-10-06T05:25:41.590Z,7.07
2018-10-06T05:28:10.059Z,7.43
2018-10-06T05:30:38.549Z,7.43
2018-10-06T05:33:07.039Z,7.07
2018-10-06T05:35:35.581Z,6.30
2018-10-06T05:38:04.097Z,6.90
2018-10-06T05:40:32.641Z,7.13
2018-10-06T05:43:01.414Z,6.90
2018-10-06T05:45:29.914Z,6.60
2018-10-06T05:47:58.434Z,6.43
2018-10-06T05:50:26.971Z,5.87
2018-10-06T05:52:55.429Z,5.87
2018-10-06T05:55:23.926Z,6.13
2018-10-06T05:57:52.433Z,6.00
2018-10-06T06:00:20.949Z,6.10
2018-10-06T06:02:49.472Z,6.20
2018-10-06T06:05:17.958Z,6.93
2018-10-06T06:07:46.395Z,6.17
2018-10-06T06:10:14.880Z,7.40
2018-10-06T06:12:43.358Z,6.60
2018-10-06T06:15:11.835Z,7.03
2018-10-06T06:17:40.582Z,7.43
2018-10-06T06:20:09.126Z,6.43
2018-10-06T06:22:37.586Z,6.23
2018-10-06T06:25:06.011Z,6.80
2018-10-06T06:27:34.462Z,6.47
2018-10-06T06:30:03.606Z,6.83
2018-10-06T06:32:32.030Z,6.53
2018-10-06T06:35:00.430Z,6.50
2018-10-06T06:37:28.878Z,6.80
2018-10-06T06:39:57.339Z,7.03
2018-10-06T06:42:25.823Z,7.37
2018-10-06T06:44:54.229Z,6.60
2018-10-06T06:47:22.705Z,7.03
2018-10-06T06:49:51.135Z,7.03
2018-10-06T06:52:19.740Z,7.63
2018-10-06T06:54:48.236Z,7.90
2018-10-06T06:57:16.670Z,7.10
2018-10-06T06:59:45.386Z,6.07
2018-10-06T07:02:13.854Z,7.03
2018-10-06T07:04:42.306Z,7.13
2018-10-06T07:07:10.769Z,6.80
2018-10-06T07:09:39.671Z,6.40
2018-10-06T07:12:08.131Z,6.43
2018-10-06T07:14:36.548Z,6.90
2018-10-06T07:17:05.251Z,5.90
2018-10-06T07:19:33.665Z,6.40
2018-10-06T07:22:02.113Z,6.70
2018-10-06T07:24:31.617Z,6.20
2018-10-06T07:27:00.046Z,6.10
2018-10-06T07:29:28.462Z,6.13
2018-10-06T07:31:56.890Z,5.60
2018-10-06T07:34:25.322Z,5.80
2018-10-06T07:36:53.765Z,6.27
2018-10-06T07:39:22.170Z,6.10
2018-10-06T07:41:51.174Z,6.67
2018-10-06T07:44:19.613Z,6.53
2018-10-06T07:46:48.037Z,6.10
2018-10-06T07:49:16.482Z,7.40
2018-10-06T07:51:45.138Z,6.90
2018-10-06T07:54:13.586Z,6.80
2018-10-06T07:56:42.038Z,6.37
2018-10-06T07:59:10.575Z,5.90
2018-10-06T08:01:38.903Z,6.40
2018-10-06T08:04:07.379Z,6.20
2018-10-06T08:06:35.786Z,5.90
2018-10-06T08:09:05.528Z,5.50
2018-10-06T08:11:33.951Z,6.23
2018-10-06T08:14:02.390Z,5.27
2018-10-06T08:16:31.164Z,5.20
2018-10-06T08:18:59.608Z,5.57
2018-10-06T08:21:28.057Z,5.57
2018-10-06T08:23:56.534Z,5.63
2018-10-06T08:26:25.020Z,5.50
2018-10-06T08:28:53.493Z,5.67
2018-10-06T08:31:21.941Z,5.10
2018-10-06T08:33:50.533Z,5.70
2018-10-06T08:36:19.235Z,5.80
2018-10-06T08:38:47.723Z,4.93
2018-10-06T08:41:16.254Z,4.60
2018-10-06T08:43:44.753Z,5.10
2018-10-06T08:46:13.217Z,4.47
2018-10-06T08:48:41.962Z,4.57
2018-10-06T08:51:10.418Z,4.57
2018-10-06T08:53:38.898Z,4.40
2018-10-06T08:56:07.511Z,4.50
2018-10-06T08:58:35.902Z,4.10
2018-10-06T09:01:04.402Z,4.87
2018-10-06T09:03:32.922Z,5.23
2018-10-06T09:06:01.401Z,6.10
2018-10-06T09:08:30.758Z,6.43
2018-10-06T09:10:59.415Z,5.93
2018-10-06T09:13:27.843Z,6.73
2018-10-06T09:15:56.555Z,5.63
2018-10-06T09:18:25.030Z,4.93
2018-10-06T09:20:53.505Z,5.97
2018-10-06T09:23:22.079Z,5.07
2018-10-06T09:25:50.525Z,5.03
2018-10-06T09:28:18.979Z,4.00
2018-10-06T09:30:47.419Z,3.50
2018-10-06T09:33:15.891Z,3.20
2018-10-06T09:35:44.331Z,3.30
2018-10-06T09:38:12.754Z,3.10
2018-10-06T09:40:41.197Z,3.10
2018-10-06T09:43:09.598Z,3.07
2018-10-06T09:45:38.043Z,3.40
2018-10-06T09:48:06.768Z,3.10
2018-10-06T09:50:35.276Z,3.10
2018-10-06T09:53:03.744Z,3.03
2018-10-06T09:55:32.273Z,3.33
2018-10-06T09:58:00.695Z,3.17
2018-10-06T10:01:34.658Z,2.90
2018-10-06T10:04:09.136Z,3.37
2018-10-06T10:06:37.910Z,3.40
2018-10-06T10:09:08.583Z,3.70
2018-10-06T10:11:37.092Z,3.57
2018-10-06T10:14:05.823Z,3.30
2018-10-06T10:16:34.333Z,3.37
2018-10-06T10:19:03.183Z,3.27
2018-10-06T10:21:31.662Z,3.13
2018-10-06T10:24:00.311Z,2.90
2018-10-06T10:26:28.715Z,3.30
2018-10-06T10:28:57.456Z,3.10
2018-10-06T10:31:25.886Z,3.13
2018-10-06T10:33:54.322Z,2.87
2018-10-06T10:36:22.797Z,3.20
2018-10-06T10:38:51.389Z,2.93
2018-10-06T10:41:20.099Z,2.70
2018-10-06T10:43:48.569Z,2.40
2018-10-06T10:46:17.038Z,2.40
2018-10-06T10:48:45.501Z,2.60
2018-10-06T10:51:14.047Z,1.83
2018-10-06T10:53:42.506Z,2.43
2018-10-06T10:56:11.003Z,2.73
2018-10-06T10:58:39.472Z,2.43
2018-10-06T11:01:08.014Z,2.47
2018-10-06T11:03:36.465Z,2.30
2018-10-06T11:06:04.932Z,2.07
2018-10-06T11:08:33.374Z,2.53
2018-10-06T11:11:01.894Z,2.80
2018-10-06T11:13:30.384Z,2.57
2018-10-06T11:15:58.857Z,2.30
2018-10-06T11:18:27.307Z,2.47
2018-10-06T11:20:55.778Z,2.13
2018-10-06T11:23:24.268Z,2.30
2018-10-06T11:25:52.750Z,2.50
2018-10-06T11:28:21.203Z,3.17
2018-10-06T11:30:49.659Z,2.97
2018-10-06T11:33:18.115Z,2.50
2018-10-06T11:35:46.589Z,2.30
2018-10-06T11:38:15.110Z,2.47
2018-10-06T11:40:43.546Z,2.80
2018-10-06T11:43:11.998Z,2.27
2018-10-06T11:45:40.482Z,2.63
2018-10-06T11:48:08.922Z,2.23
2018-10-06T11:50:37.422Z,2.27
2018-10-06T11:53:05.928Z,2.40
2018-10-06T11:55:34.390Z,2.70
2018-10-06T11:58:02.862Z,2.50
2018-10-06T12:00:31.378Z,2.40
2018-10-06T12:02:59.798Z,2.27
2018-10-06T12:05:28.262Z,2.13
2018-10-06T12:07:56.702Z,2.33
2018-10-06T12:10:25.172Z,2.40
2018-10-06T12:12:53.675Z,2.47
2018-10-06T12:15:22.123Z,2.20
2018-10-06T12:17:50.589Z,2.83
2018-10-06T12:20:19.039Z,2.90
2018-10-06T12:22:47.527Z,2.20
2018-10-06T12:25:15.980Z,2.13
2018-10-06T12:27:44.454Z,2.17
2018-10-06T12:30:12.906Z,2.83
2018-10-06T12:32:41.430Z,2.80
2018-10-06T12:35:09.949Z,2.27
2018-10-06T12:37:38.377Z,2.33
2018-10-06T12:40:06.828Z,2.27
2018-10-06T12:42:35.303Z,2.43
2018-10-06T12:45:03.785Z,2.63
2018-10-06T12:47:32.274Z,2.47
2018-10-06T12:50:00.755Z,2.30
2018-10-06T12:52:29.241Z,2.13
2018-10-06T12:54:57.707Z,2.50
2018-10-06T12:57:26.212Z,2.30
2018-10-06T12:59:54.843Z,2.40
2018-10-06T13:02:23.317Z,2.33
2018-10-06T13:04:51.835Z,2.20
2018-10-06T13:07:20.570Z,2.20
2018-10-06T13:09:49.034Z,1.77
2018-10-06T13:12:17.509Z,2.67
2018-10-06T13:14:45.995Z,2.23
2018-10-06T13:17:14.480Z,2.07
2018-10-06T13:19:42.981Z,2.20
2018-10-06T13:22:11.469Z,2.23
2018-10-06T13:24:39.886Z,2.20
2018-10-06T13:27:08.317Z,2.20
2018-10-06T13:29:36.793Z,2.20
2018-10-06T13:32:05.226Z,2.20
2018-10-06T13:34:33.654Z,2.57
2018-10-06T13:37:02.109Z,2.40
2018-10-06T13:39:30.530Z,2.33
2018-10-06T13:41:58.986Z,2.10
2018-10-06T13:44:27.431Z,2.33
2018-10-06T13:46:55.866Z,2.77
2018-10-06T13:49:24.311Z,1.90
2018-10-06T13:51:52.912Z,2.57
2018-10-06T13:54:21.346Z,2.00
2018-10-06T13:56:50.332Z,2.00
2018-10-06T13:59:18.778Z,2.30
2018-10-06T14:01:47.487Z,2.43
2018-10-06T14:04:15.934Z,1.73
2018-10-06T14:06:44.338Z,2.37
2018-10-06T14:09:12.806Z,2.40
2018-10-06T14:11:41.232Z,2.00
2018-10-06T14:14:09.706Z,2.20
2018-10-06T14:16:38.190Z,2.03
2018-10-06T14:19:07.044Z,2.50
2018-10-06T14:21:35.526Z,2.20
2018-10-06T14:24:04.028Z,2.67
2018-10-06T14:26:32.570Z,2.87
2018-10-06T14:29:01.046Z,2.47
2018-10-06T14:31:29.493Z,2.03
2018-10-06T14:33:57.975Z,2.17
2018-10-06T14:36:26.405Z,2.37
2018-10-06T14:38:54.865Z,2.70
2018-10-06T14:41:23.385Z,2.50
2018-10-06T14:43:52.168Z,2.40
2018-10-06T14:46:20.662Z,2.77
2018-10-06T14:48:49.133Z,2.63
2018-10-06T14:51:17.601Z,2.53
2018-10-06T14:53:46.099Z,2.67
2018-10-06T14:56:14.560Z,2.07
2018-10-06T14:58:43.023Z,2.20
2018-10-06T15:01:11.479Z,2.10
2018-10-06T15:03:40.011Z,2.20
2018-10-06T15:06:08.425Z,2.13
2018-10-06T15:08:36.885Z,2.23
2018-10-06T15:11:05.325Z,2.07
2018-10-06T15:13:33.782Z,2.20
2018-10-06T15:16:02.410Z,2.40
2018-10-06T15:18:30.762Z,2.53
2018-10-06T15:20:59.197Z,2.60
2018-10-06T15:23:27.653Z,2.40
2018-10-06T15:25:56.099Z,2.40
2018-10-06T15:28:24.517Z,1.97
2018-10-06T15:30:52.926Z,2.27
2018-10-06T15:33:21.377Z,2.40
2018-10-06T15:35:49.853Z,2.33
2018-10-06T15:38:18.296Z,2.33
2018-10-06T15:40:46.774Z,2.57
2018-10-06T15:43:15.238Z,2.50
2018-10-06T15:45:43.699Z,2.10
2018-10-06T15:48:12.114Z,2.87
2018-10-06T15:50:40.545Z,2.57
2018-10-06T15:53:08.970Z,2.20
2018-10-06T15:55:37.410Z,2.93
2018-10-06T15:58:05.843Z,2.43
2018-10-06T16:00:34.323Z,2.43
2018-10-06T16:03:02.817Z,2.33
2018-10-06T16:05:31.230Z,2.73
2018-10-06T16:07:59.634Z,2.87
2018-10-06T16:10:28.086Z,3.10
2018-10-06T16:12:56.487Z,2.53
2018-10-06T16:15:25.033Z,2.70
2018-10-06T16:17:53.461Z,3.63
2018-10-06T16:20:21.922Z,2.67
2018-10-06T16:22:50.382Z,2.83
2018-10-06T16:25:18.831Z,2.80
2018-10-06T16:27:47.230Z,2.73
2018-10-06T16:30:15.658Z,2.70
2018-10-06T16:32:44.070Z,2.77
2018-10-06T16:35:12.506Z,3.17
2018-10-06T16:37:40.898Z,3.00
2018-10-06T16:40:09.321Z,2.90
2018-10-06T16:42:37.802Z,2.60
2018-10-06T16:45:06.337Z,3.33
2018-10-06T16:47:34.755Z,3.00
2018-10-06T16:50:03.217Z,3.23
2018-10-06T16:52:31.621Z,2.97
2018-10-06T16:55:00.077Z,3.40
2018-10-06T16:57:28.498Z,3.50
2018-10-06T16:59:57.026Z,3.30
2018-10-06T17:02:25.388Z,3.00
2018-10-06T17:04:53.853Z,3.43
2018-10-06T17:07:22.395Z,3.23
2018-10-06T17:09:50.853Z,3.60
2018-10-06T17:12:19.349Z,2.97
2018-10-06T17:14:47.854Z,3.27
2018-10-06T17:17:16.277Z,3.93
2018-10-06T17:19:44.721Z,3.67
2018-10-06T17:22:13.220Z,3.37
2018-10-06T17:24:41.653Z,3.40
2018-10-06T17:27:10.096Z,3.67
2018-10-06T17:29:38.545Z,3.97
2018-10-06T17:32:06.973Z,3.80
2018-10-06T17:34:35.392Z,3.50
2018-10-06T17:37:03.829Z,3.50
2018-10-06T17:39:32.237Z,3.87
2018-10-06T17:42:00.679Z,3.50
2018-10-06T17:44:29.184Z,3.50
2018-10-06T17:46:57.645Z,3.77
2018-10-06T17:49:26.071Z,3.40
2018-10-06T17:51:54.554Z,4.13
2018-10-06T17:54:23.281Z,3.33
2018-10-06T17:56:51.694Z,4.30
2018-10-06T17:59:20.098Z,3.30
2018-10-06T18:01:48.551Z,3.60
2018-10-06T18:04:16.968Z,3.47
2018-10-06T18:06:45.421Z,3.43
2018-10-06T18:09:13.855Z,3.70
2018-10-06T18:11:42.278Z,4.13
2018-10-06T18:14:10.718Z,3.80
2018-10-06T18:16:39.166Z,4.17
2018-10-06T18:19:07.612Z,4.13
2018-10-06T18:21:36.260Z,3.77
2018-10-06T18:24:04.522Z,4.10
2018-10-06T18:26:33.008Z,3.80
2018-10-06T18:29:01.478Z,3.90
2018-10-06T18:31:29.890Z,3.90
2018-10-06T18:33:58.390Z,3.60
2018-10-06T18:36:26.998Z,4.40
2018-10-06T18:38:55.322Z,3.73
2018-10-06T18:41:23.766Z,3.53
2018-10-06T18:43:52.285Z,3.53
2018-10-06T18:46:20.701Z,4.07
2018-10-06T18:48:49.153Z,4.23
2018-10-06T18:51:17.570Z,4.00
2018-10-06T18:53:46.010Z,4.07
2018-10-06T18:56:14.445Z,4.00
2018-10-06T18:58:42.859Z,4.00
2018-10-06T19:01:11.284Z,4.07
2018-10-06T19:03:39.865Z,4.23
2018-10-06T19:06:08.250Z,4.80
2018-10-06T19:08:36.693Z,4.47
2018-10-06T19:11:05.250Z,4.10
2018-10-06T19:13:33.679Z,3.90
2018-10-06T19:16:02.126Z,4.80
2018-10-06T19:18:30.569Z,4.57
2018-10-06T19:20:59.049Z,4.50
2018-10-06T19:23:27.528Z,3.73
2018-10-06T19:25:55.950Z,4.67
2018-10-06T19:28:24.379Z,4.43
2018-10-06T19:30:52.819Z,4.60
2018-10-06T19:33:21.269Z,4.27
2018-10-06T19:35:49.696Z,3.77
2018-10-06T19:38:18.185Z,4.40
2018-10-06T19:40:46.650Z,4.20
2018-10-06T19:43:15.390Z,4.60
2018-10-06T19:45:43.849Z,4.60
2018-10-06T19:48:12.330Z,4.50
2018-10-06T19:50:40.806Z,4.40
2018-10-06T19:53:09.257Z,4.00
2018-10-06T19:55:37.674Z,3.90
2018-10-06T19:58:06.156Z,4.80
2018-10-06T20:00:34.590Z,4.73
2018-10-06T20:03:03.050Z,4.97
2018-10-06T20:05:31.481Z,4.63
2018-10-06T20:07:59.946Z,3.87
2018-10-06T20:10:28.386Z,4.57
2018-10-06T20:12:56.821Z,4.50
2018-10-06T20:15:25.251Z,4.20
2018-10-06T20:17:53.667Z,4.43
2018-10-06T20:20:22.111Z,5.03
2018-10-06T20:22:50.661Z,4.70
2018-10-06T20:25:19.115Z,4.77
2018-10-06T20:27:47.591Z,4.73
2018-10-06T20:30:16.066Z,5.33
2018-10-06T20:32:44.561Z,4.77
2018-10-06T20:35:13.014Z,4.87
2018-10-06T20:37:41.468Z,5.23
2018-10-06T20:40:09.938Z,5.13
2018-10-06T20:42:38.414Z,4.93
2018-10-06T20:45:06.902Z,5.00
2018-10-06T20:47:35.398Z,5.60
2018-10-06T20:50:03.861Z,5.10
2018-10-06T20:52:32.346Z,5.30
2018-10-06T20:55:00.798Z,5.23
2018-10-06T20:57:29.274Z,5.00
2018-10-06T20:59:57.750Z,4.93
2018-10-06T21:02:26.191Z,5.30
2018-10-06T21:04:54.654Z,5.30
2018-10-06T21:07:23.174Z,5.60
2018-10-06T21:09:51.642Z,5.47
2018-10-06T21:12:20.091Z,4.87
2018-10-06T21:14:49.981Z,5.23
2018-10-06T21:17:19.388Z,5.27
2018-10-06T21:19:48.730Z,6.10
2018-10-06T21:22:17.216Z,6.37
2018-10-06T21:24:45.678Z,5.57
2018-10-06T21:27:14.107Z,7.17
2018-10-06T21:29:42.733Z,5.70
2018-10-06T21:32:11.162Z,5.87
2018-10-06T21:34:39.663Z,5.57
2018-10-06T21:37:08.752Z,5.90
2018-10-06T21:39:37.234Z,5.77
2018-10-06T21:42:05.682Z,5.93
2018-10-06T21:44:34.132Z,6.17
2018-10-06T21:47:02.612Z,5.70
2018-10-06T21:49:31.117Z,5.57
2018-10-06T21:51:59.534Z,5.80
2018-10-06T21:54:28.002Z,5.77
2018-10-06T21:56:56.426Z,5.90
2018-10-06T21:59:24.873Z,6.10
2018-10-06T22:01:53.323Z,5.20
2018-10-06T22:04:21.773Z,5.93
2018-10-06T22:06:50.232Z,6.10
2018-10-06T22:09:18.682Z,5.47
2018-10-06T22:11:47.096Z,5.57
2018-10-06T22:14:15.537Z,5.73
2018-10-06T22:16:43.949Z,6.63
2018-10-06T22:19:12.397Z,5.73
2018-10-06T22:21:40.873Z,5.57
2018-10-06T22:24:09.337Z,6.20
2018-10-06T22:26:37.785Z,5.93
2018-10-06T22:29:06.290Z,5.80
2018-10-06T22:31:34.736Z,6.17
2018-10-06T22:34:03.205Z,5.83
2018-10-06T22:36:31.669Z,6.50
2018-10-06T22:39:00.166Z,6.37
2018-10-06T22:41:28.674Z,6.30
2018-10-06T22:43:57.138Z,7.00
2018-10-06T22:46:25.613Z,6.30
2018-10-06T22:48:54.081Z,5.90
2018-10-06T22:51:22.550Z,6.37
2018-10-06T22:53:51.043Z,5.60
2018-10-06T22:56:19.542Z,6.57
2018-10-06T22:58:48.020Z,6.57
2018-10-06T23:01:16.489Z,6.37
2018-10-06T23:03:44.946Z,6.70
2018-10-06T23:06:13.458Z,6.40
2018-10-06T23:08:42.001Z,6.70
2018-10-06T23:11:10.521Z,6.10
2018-10-06T23:13:38.987Z,6.33
2018-10-06T23:16:07.473Z,6.17
2018-10-06T23:18:36.030Z,6.70
2018-10-06T23:21:04.526Z,7.20
2018-10-06T23:23:33.061Z,6.37
2018-10-06T23:26:01.563Z,6.27
2018-10-06T23:28:29.987Z,6.47
2018-10-06T23:30:58.500Z,6.77
2018-10-06T23:33:26.982Z,6.80
2018-10-06T23:35:55.444Z,7.27
2018-10-06T23:38:24.082Z,6.40
2018-10-06T23:40:52.566Z,6.27
2018-10-06T23:43:21.066Z,7.53
2018-10-06T23:45:49.561Z,6.77
2018-10-06T23:48:18.018Z,6.60
2018-10-06T23:50:46.499Z,6.47
2018-10-06T23:53:14.946Z,7.37
2018-10-06T23:55:43.421Z,6.80
2018-10-06T23:58:11.866Z,7.27
